createdAt,value
2019-04-11T00:00:33.901Z,54.53
2019-04-11T00:03:05.054Z,57.30
2019-04-11T00:05:35.147Z,54.87
2019-04-11T00:08:05.959Z,54.80
2019-04-11T00:10:37.398Z,55.30
2019-04-11T00:13:17.372Z,53.87
2019-04-11T00:15:39.052Z,53.07
2019-04-11T00:18:10.227Z,55.60
2019-04-11T00:20:40.379Z,54.83
2019-04-11T00:23:10.305Z,54.73
2019-04-11T00:25:40.284Z,54.33
2019-04-11T00:28:10.289Z,53.07
2019-04-11T00:30:40.277Z,54.43
2019-04-11T00:33:10.534Z,54.87
2019-04-11T00:35:40.380Z,54.40
2019-04-11T00:38:10.318Z,54.00
2019-04-11T00:40:41.547Z,53.37
2019-04-11T00:43:11.599Z,55.60
2019-04-11T00:45:41.506Z,52.47
2019-04-11T00:48:11.577Z,55.37
2019-04-11T00:50:41.534Z,55.27
2019-04-11T00:53:11.910Z,52.90
2019-04-11T00:55:41.957Z,52.23
2019-04-11T00:58:11.947Z,54.20
2019-04-11T01:00:42.996Z,54.77
2019-04-11T01:03:13.811Z,53.13
2019-04-11T01:05:43.873Z,50.90
2019-04-11T01:08:13.993Z,52.67
2019-04-11T01:10:43.909Z,52.07
2019-04-11T01:13:14.287Z,53.50
2019-04-11T01:15:52.964Z,53.20
2019-04-11T01:18:22.808Z,52.97
2019-04-11T01:20:53.687Z,54.50
2019-04-11T01:23:23.798Z,50.57
2019-04-11T01:25:54.993Z,51.57
2019-04-11T01:28:24.962Z,50.97
2019-04-11T01:31:05.223Z,52.63
2019-04-11T01:33:35.919Z,52.27
2019-04-11T01:36:06.936Z,50.67
2019-04-11T01:38:42.197Z,51.97
2019-04-11T01:41:12.223Z,48.77
2019-04-11T01:43:52.586Z,50.77
2019-04-11T01:46:14.093Z,49.13
2019-04-11T01:48:55.605Z,49.17
2019-04-11T01:51:25.722Z,48.50
2019-04-11T01:53:55.718Z,46.60
2019-04-11T01:56:27.357Z,48.87
2019-04-11T01:58:57.414Z,48.10
2019-04-11T02:01:32.620Z,48.00
2019-04-11T02:04:14.424Z,43.70
2019-04-11T02:06:44.471Z,44.27
2019-04-11T02:09:15.879Z,46.90
2019-04-11T02:11:45.892Z,44.00
2019-04-11T02:14:19.254Z,41.97
2019-04-11T02:16:49.606Z,40.50
2019-04-11T02:19:20.418Z,39.23
2019-04-11T02:21:52.283Z,38.17
2019-04-11T02:24:42.022Z,40.20
2019-04-11T02:27:24.800Z,39.37
2019-04-11T02:29:55.990Z,39.37
2019-04-11T02:32:28.654Z,39.87
2019-04-11T02:34:59.315Z,36.47
2019-04-11T02:37:31.764Z,36.70
2019-04-11T02:40:03.236Z,35.77
2019-04-11T02:42:35.107Z,34.73
2019-04-11T02:45:19.878Z,33.60
2019-04-11T02:47:40.022Z,33.03
2019-04-11T02:50:12.418Z,33.37
2019-04-11T02:52:42.283Z,30.93
2019-04-11T02:55:14.451Z,31.40
2019-04-11T02:57:45.945Z,30.67
2019-04-11T03:00:18.023Z,28.70
2019-04-11T03:02:50.258Z,29.40
2019-04-11T03:05:20.818Z,29.20
2019-04-11T03:07:51.850Z,27.93
2019-04-11T03:10:21.839Z,28.13
2019-04-11T03:12:52.679Z,27.73
2019-04-11T03:15:37.544Z,25.97
2019-04-11T03:17:59.571Z,25.43
2019-04-11T03:20:34.434Z,26.73
2019-04-11T03:23:04.502Z,26.27
2019-04-11T03:25:31.154Z,24.93
2019-04-11T03:28:02.176Z,25.63
2019-04-11T03:30:49.437Z,23.70
2019-04-11T03:38:31.687Z,24.60
2019-04-11T03:40:57.018Z,23.77
2019-04-11T03:43:27.708Z,24.17
2019-04-11T03:46:06.698Z,24.17
2019-04-11T03:48:33.296Z,24.03
2019-04-11T03:50:52.479Z,23.80
2019-04-11T03:53:26.477Z,23.83
2019-04-11T03:55:53.908Z,24.37
2019-04-11T03:58:25.789Z,22.33
2019-04-11T04:00:59.308Z,24.13
2019-04-11T04:03:29.500Z,21.53
2019-04-11T04:06:01.876Z,23.17
2019-04-11T04:08:34.125Z,21.80
2019-04-11T04:11:25.344Z,22.20
2019-04-11T04:14:08.171Z,22.60
2019-04-11T04:16:48.661Z,19.83
2019-04-11T04:19:32.549Z,22.20
2019-04-11T04:22:07.380Z,21.80
2019-04-11T04:24:41.337Z,21.13
2019-04-11T04:27:10.283Z,21.57
2019-04-11T04:29:43.951Z,20.17
2019-04-11T04:32:14.474Z,19.83
2019-04-11T04:34:46.416Z,18.80
2019-04-11T04:37:21.413Z,20.07
2019-04-11T04:40:03.379Z,20.33
2019-04-11T04:42:31.057Z,20.60
2019-04-11T04:44:55.820Z,19.73
2019-04-11T04:47:37.273Z,19.83
2019-04-11T04:49:59.350Z,19.53
2019-04-11T04:52:30.376Z,18.67
2019-04-11T04:55:02.149Z,18.80
2019-04-11T04:57:33.934Z,18.33
2019-04-11T05:00:06.865Z,18.47
2019-04-11T05:02:37.349Z,18.60
2019-04-11T05:05:09.497Z,18.00
2019-04-11T05:07:42.356Z,18.67
2019-04-11T05:10:13.302Z,18.50
2019-04-11T05:12:43.904Z,19.57
2019-04-11T05:15:14.543Z,18.50
2019-04-11T05:17:46.116Z,19.30
2019-04-11T05:20:17.614Z,19.73
2019-04-11T05:22:47.588Z,20.30
2019-04-11T05:25:18.229Z,18.50
2019-04-11T05:27:48.295Z,18.17
2019-04-11T05:30:18.777Z,18.43
2019-04-11T05:32:49.347Z,18.40
2019-04-11T05:35:19.230Z,19.53
2019-04-11T05:37:49.139Z,19.50
2019-04-11T05:40:19.053Z,18.10
2019-04-11T05:42:53.464Z,18.13
2019-04-11T05:45:24.409Z,18.30
2019-04-11T05:47:55.544Z,18.47
2019-04-11T05:50:34.048Z,19.37
2019-04-11T05:53:05.546Z,18.07
2019-04-11T05:55:41.431Z,17.37
2019-04-11T05:58:13.766Z,17.20
2019-04-11T06:01:01.238Z,16.97
2019-04-11T06:03:32.345Z,16.47
2019-04-11T06:06:21.398Z,16.83
2019-04-11T06:08:54.212Z,17.63
2019-04-11T06:11:29.178Z,17.50
2019-04-11T06:14:20.900Z,17.33
2019-04-11T06:16:55.697Z,15.93
2019-04-11T06:19:43.782Z,16.83
2019-04-11T06:22:14.882Z,16.00
2019-04-11T06:25:06.019Z,16.03
2019-04-11T06:27:55.708Z,15.17
2019-04-11T06:31:04.584Z,15.37
2019-04-11T06:33:42.781Z,16.80
2019-04-11T06:36:41.270Z,15.93
2019-04-11T06:39:29.469Z,16.57
2019-04-11T06:42:17.381Z,16.30
2019-04-11T06:44:59.651Z,17.00
2019-04-11T06:47:49.230Z,16.70
2019-04-11T06:50:25.099Z,17.30
2019-04-11T06:52:56.218Z,16.00
2019-04-11T06:55:49.630Z,16.30
2019-04-11T06:58:23.535Z,17.17
2019-04-11T07:00:58.574Z,15.43
2019-04-11T07:03:32.478Z,16.57
2019-04-11T07:06:09.171Z,15.77
2019-04-11T07:08:49.048Z,16.07
2019-04-11T07:11:21.527Z,16.33
2019-04-11T07:14:01.913Z,17.10
2019-04-11T07:16:31.960Z,16.80
2019-04-11T07:19:23.908Z,17.37
2019-04-11T07:21:54.124Z,16.77
2019-04-11T07:25:01.967Z,16.10
2019-04-11T07:27:32.293Z,17.20
2019-04-11T07:30:22.751Z,17.10
2019-04-11T07:32:56.266Z,17.00
2019-04-11T07:35:59.717Z,16.20
2019-04-11T07:38:37.030Z,17.90
2019-04-11T07:41:27.395Z,16.67
2019-04-11T07:43:58.343Z,16.90
2019-04-11T07:46:43.947Z,17.03
2019-04-11T07:49:15.648Z,16.87
2019-04-11T07:51:56.142Z,17.67
2019-04-11T07:54:27.970Z,16.53
2019-04-11T07:57:20.174Z,16.53
2019-04-11T08:00:17.971Z,18.10
2019-04-11T08:03:10.018Z,16.70
2019-04-11T08:05:50.837Z,17.53
2019-04-11T08:08:39.030Z,18.57
2019-04-11T08:11:27.461Z,18.57
2019-04-11T08:14:22.722Z,18.17
2019-04-11T08:17:12.370Z,18.83
2019-04-11T08:19:59.906Z,18.80
2019-04-11T08:22:35.050Z,19.33
2019-04-11T08:25:25.098Z,19.40
2019-04-11T08:28:06.113Z,19.57
2019-04-11T08:30:51.996Z,20.10
2019-04-11T08:33:22.485Z,19.67
2019-04-11T08:36:24.104Z,19.47
2019-04-11T08:38:54.116Z,19.23
2019-04-11T08:41:49.630Z,20.67
2019-04-11T08:44:23.821Z,20.13
2019-04-11T08:46:58.115Z,19.37
2019-04-11T08:49:41.753Z,19.03
2019-04-11T08:52:18.014Z,19.80
2019-04-11T08:55:10.389Z,20.13
2019-04-11T08:57:42.951Z,18.50
2019-04-11T09:00:42.745Z,19.77
2019-04-11T09:04:04.131Z,18.73
2019-04-11T09:06:30.732Z,19.37
2019-04-11T09:09:38.107Z,19.60
2019-04-11T09:12:11.995Z,18.27
2019-04-11T09:15:00.263Z,19.47
2019-04-11T09:17:34.458Z,19.43
2019-04-11T09:20:29.949Z,20.73
2019-04-11T09:23:01.795Z,18.77
2019-04-11T09:25:51.670Z,19.60
2019-04-11T09:28:41.710Z,20.30
2019-04-11T09:31:43.991Z,22.47
2019-04-11T09:34:30.337Z,22.73
2019-04-11T09:37:12.365Z,23.47
2019-04-11T09:40:03.796Z,23.27
2019-04-11T09:42:59.634Z,22.50
2019-04-11T09:45:48.738Z,22.63
2019-04-11T09:48:44.148Z,23.70
2019-04-11T09:51:40.289Z,25.13
2019-04-11T09:54:48.463Z,23.03
2019-04-11T09:57:52.857Z,22.47
2019-04-11T10:00:41.062Z,24.00
2019-04-11T10:03:17.542Z,25.17
2019-04-11T10:05:56.716Z,24.80
2019-04-11T10:08:35.260Z,25.33
2019-04-11T10:11:24.133Z,24.43
2019-04-11T10:14:17.642Z,24.37
2019-04-11T10:17:06.536Z,24.40
2019-04-11T10:19:46.462Z,23.77
2019-04-11T10:22:34.142Z,25.40
2019-04-11T10:25:19.124Z,22.57
2019-04-11T10:28:07.088Z,23.93
2019-04-11T10:31:12.491Z,24.37
2019-04-11T10:34:19.649Z,23.27
2019-04-11T10:37:05.320Z,24.77
2019-04-11T10:39:54.541Z,24.17
2019-04-11T10:42:26.630Z,24.33
2019-04-11T10:45:18.588Z,25.73
2019-04-11T10:47:49.717Z,24.23
2019-04-11T10:50:36.263Z,24.10
2019-04-11T10:53:06.851Z,23.30
2019-04-11T10:56:08.461Z,23.83
2019-04-11T10:58:59.753Z,23.47
2019-04-11T11:01:48.490Z,24.37
2019-04-11T11:04:25.585Z,24.97
2019-04-11T11:06:58.648Z,24.37
2019-04-11T11:09:56.867Z,25.47
2019-04-11T11:12:45.485Z,26.33
2019-04-11T11:15:27.576Z,25.43
2019-04-11T11:18:53.909Z,25.03
2019-04-11T11:21:02.601Z,23.83
2019-04-11T11:23:50.759Z,25.07
2019-04-11T11:26:33.778Z,23.67
2019-04-11T11:29:41.178Z,25.33
2019-04-11T11:32:29.501Z,25.97
2019-04-11T11:35:15.187Z,26.97
2019-04-11T11:37:57.453Z,26.03
2019-04-11T11:40:45.257Z,27.53
2019-04-11T11:43:35.043Z,27.93
2019-04-11T11:46:26.723Z,28.53
2019-04-11T11:49:02.395Z,28.10
2019-04-11T11:51:37.501Z,29.67
2019-04-11T11:54:13.741Z,28.77
2019-04-11T11:56:44.472Z,29.57
2019-04-11T12:17:10.809Z,27.70
2019-04-11T12:19:52.910Z,28.67
2019-04-11T12:22:18.092Z,27.97
2019-04-11T12:24:52.478Z,27.47
2019-04-11T12:27:41.453Z,28.63
2019-04-11T12:30:31.292Z,31.70
2019-04-11T12:33:23.511Z,29.60
2019-04-11T12:36:08.243Z,29.53
2019-04-11T12:38:57.091Z,29.80
2019-04-11T12:41:35.581Z,30.43
2019-04-11T12:44:30.756Z,30.63
2019-04-11T12:47:38.605Z,30.97
2019-04-11T12:50:28.941Z,30.60
2019-04-11T12:53:10.742Z,31.33
2019-04-11T12:55:58.398Z,30.40
2019-04-11T12:58:31.147Z,30.83
2019-04-11T13:01:32.338Z,29.97
2019-04-11T13:04:23.515Z,30.47
2019-04-11T13:07:18.820Z,30.53
2019-04-11T13:09:53.863Z,31.93
2019-04-11T13:12:39.163Z,31.50
2019-04-11T13:15:20.716Z,29.57
2019-04-11T13:18:01.294Z,30.57
2019-04-11T13:20:56.190Z,30.33
2019-04-11T13:23:45.042Z,29.03
2019-04-11T13:26:39.803Z,30.07
2019-04-11T13:29:24.330Z,30.97
2019-04-11T13:32:12.185Z,30.60
2019-04-11T13:34:43.166Z,32.73
2019-04-11T13:37:32.093Z,30.57
2019-04-11T13:40:33.230Z,32.20
2019-04-11T13:43:20.841Z,30.90
2019-04-11T13:46:08.964Z,31.13
2019-04-11T13:48:57.493Z,30.90
2019-04-11T13:51:55.568Z,30.37
2019-04-11T13:54:53.631Z,31.83
2019-04-11T13:57:57.993Z,31.70
2019-04-11T14:00:46.523Z,32.40
2019-04-11T14:03:47.849Z,32.93
2019-04-11T14:06:20.901Z,32.30
2019-04-11T14:08:59.347Z,34.57
2019-04-11T14:11:33.746Z,35.27
2019-04-11T14:14:13.019Z,35.43
2019-04-11T14:16:52.647Z,35.97
2019-04-11T14:19:56.701Z,34.03
2019-04-11T14:22:31.120Z,35.03
2019-04-11T14:25:18.756Z,34.93
2019-04-11T14:27:50.400Z,34.73
2019-04-11T14:30:35.757Z,35.70
2019-04-11T14:33:06.845Z,34.17
2019-04-11T14:35:58.912Z,35.43
2019-04-11T14:38:32.037Z,34.03
2019-04-11T14:41:41.505Z,35.67
2019-04-11T14:44:09.528Z,33.27
2019-04-11T14:46:50.302Z,34.63
2019-04-11T14:49:20.425Z,34.57
2019-04-11T14:52:16.995Z,34.37
2019-04-11T14:54:49.204Z,34.37
2019-04-11T14:57:55.762Z,34.37
2019-04-11T15:00:44.069Z,35.07
2019-04-11T15:03:33.005Z,34.83
2019-04-11T15:06:20.437Z,35.23
2019-04-11T15:09:07.916Z,35.07
2019-04-11T15:11:49.632Z,34.97
2019-04-11T15:14:37.165Z,34.60
2019-04-11T15:17:12.801Z,34.70
2019-04-11T15:19:45.898Z,33.63
2019-04-11T15:22:35.716Z,34.83
2019-04-11T15:25:12.562Z,32.80
2019-04-11T15:28:00.173Z,34.03
2019-04-11T15:30:30.936Z,33.93
2019-04-11T15:33:35.511Z,35.80
2019-04-11T15:36:07.515Z,34.67
2019-04-11T15:39:06.729Z,35.63
2019-04-11T15:41:38.394Z,34.57
2019-04-11T15:44:27.154Z,35.80
2019-04-11T15:47:00.709Z,34.53
2019-04-11T15:49:48.301Z,35.20
2019-04-11T15:52:21.235Z,34.80
2019-04-11T15:55:08.850Z,36.13
2019-04-11T15:57:45.872Z,34.23
2019-04-11T16:00:44.449Z,34.50
2019-04-11T16:03:24.603Z,34.87
2019-04-11T16:06:12.825Z,33.87
2019-04-11T16:08:47.880Z,35.17
2019-04-11T16:11:42.817Z,35.03
2019-04-11T16:14:29.676Z,36.13
2019-04-11T16:17:16.894Z,34.10
2019-04-11T16:19:51.642Z,34.37
2019-04-11T16:22:39.374Z,33.80
2019-04-11T16:25:11.735Z,33.57
2019-04-11T16:28:07.901Z,34.37
2019-04-11T16:30:40.513Z,34.17
2019-04-11T16:33:17.315Z,34.37
2019-04-11T16:35:57.255Z,33.90
2019-04-11T16:38:28.904Z,33.60
2019-04-11T16:41:16.437Z,34.67
2019-04-11T16:43:49.422Z,34.50
2019-04-11T16:46:37.079Z,34.93
2019-04-11T16:49:06.986Z,34.87
2019-04-11T16:51:36.837Z,35.33
2019-04-11T16:54:09.544Z,35.47
2019-04-11T16:56:38.361Z,35.07
2019-04-11T16:59:08.290Z,35.83
2019-04-11T17:01:38.226Z,34.63
2019-04-11T17:04:08.842Z,35.10
2019-04-11T17:06:57.682Z,35.00
2019-04-11T17:09:46.609Z,34.67
2019-04-11T17:12:16.541Z,36.20
2019-04-11T17:14:46.538Z,36.17
2019-04-11T17:17:16.492Z,35.37
2019-04-11T17:19:46.362Z,35.90
2019-04-11T17:22:16.777Z,36.70
2019-04-11T17:24:49.855Z,36.53
2019-04-11T17:27:23.176Z,35.80
2019-04-11T17:29:55.383Z,37.93
2019-04-11T17:32:25.962Z,36.23
2019-04-11T17:34:56.384Z,36.60
2019-04-11T17:37:27.262Z,37.60
2019-04-11T17:39:57.185Z,37.43
2019-04-11T17:42:27.046Z,35.33
2019-04-11T17:44:58.116Z,35.60
2019-04-11T17:47:27.984Z,36.10
2019-04-11T17:49:59.576Z,37.33
2019-04-11T17:52:29.748Z,35.43
2019-04-11T17:55:00.696Z,36.07
2019-04-11T17:57:31.405Z,35.67
2019-04-11T18:00:01.389Z,35.83
2019-04-11T18:02:32.586Z,36.33
2019-04-11T18:05:02.653Z,36.63
2019-04-11T18:07:32.572Z,33.83
2019-04-11T18:10:02.484Z,34.13
2019-04-11T18:12:32.502Z,36.13
2019-04-11T18:15:02.973Z,32.67
2019-04-11T18:17:35.007Z,34.33
2019-04-11T18:20:06.880Z,33.30
2019-04-11T18:22:37.363Z,32.93
2019-04-11T18:25:07.756Z,32.67
2019-04-11T18:27:37.795Z,32.83
2019-04-11T18:30:10.997Z,32.60
2019-04-11T18:32:41.380Z,32.30
2019-04-11T18:35:11.381Z,31.53
2019-04-11T18:37:41.410Z,30.00
2019-04-11T18:40:11.727Z,29.87
2019-04-11T18:42:41.669Z,30.03
2019-04-11T18:45:12.096Z,30.23
2019-04-11T18:47:42.116Z,30.13
2019-04-11T18:50:12.612Z,29.43
2019-04-11T18:52:42.598Z,27.27
2019-04-11T18:55:13.130Z,28.63
2019-04-11T18:57:43.894Z,28.00
2019-04-11T19:00:16.208Z,27.87
2019-04-11T19:02:46.511Z,28.97
2019-04-11T19:05:28.249Z,27.40
2019-04-11T19:07:49.105Z,27.87
2019-04-11T19:10:19.113Z,25.90
2019-04-11T19:12:49.101Z,26.33
2019-04-11T19:15:19.398Z,27.27
2019-04-11T19:17:49.416Z,27.40
2019-04-11T19:20:19.785Z,26.80
2019-04-11T19:22:49.890Z,25.37
2019-04-11T19:25:19.798Z,26.87
2019-04-11T19:27:53.302Z,24.17
2019-04-11T19:30:21.613Z,26.00
2019-04-11T19:32:53.333Z,25.13
2019-04-11T19:35:23.259Z,24.33
2019-04-11T19:37:53.122Z,23.87
2019-04-11T19:40:23.127Z,24.23
2019-04-11T19:42:53.067Z,25.67
2019-04-11T19:45:23.113Z,24.30
2019-04-11T19:47:53.123Z,24.47
2019-04-11T19:50:24.172Z,24.43
2019-04-11T19:52:53.999Z,24.60
2019-04-11T19:55:42.844Z,23.23
2019-04-11T19:58:12.892Z,24.00
2019-04-11T20:00:42.891Z,25.27
2019-04-11T20:03:12.820Z,24.73
2019-04-11T20:05:42.733Z,23.27
2019-04-11T20:08:12.694Z,23.80
2019-04-11T20:10:42.600Z,22.27
2019-04-11T20:13:12.608Z,23.27
2019-04-11T20:15:43.143Z,22.53
2019-04-11T20:18:13.099Z,22.83
2019-04-11T20:20:43.011Z,22.33
2019-04-11T20:23:12.902Z,22.47
2019-04-11T20:25:45.734Z,22.60
2019-04-11T20:28:14.400Z,22.50
2019-04-11T20:30:44.837Z,22.07
2019-04-11T20:33:26.371Z,23.17
2019-04-11T20:35:46.401Z,23.77
2019-04-11T20:38:16.782Z,23.03
2019-04-11T20:40:46.691Z,22.23
2019-04-11T20:43:16.685Z,22.07
2019-04-11T20:45:46.657Z,21.83
2019-04-11T20:48:16.561Z,22.20
2019-04-11T20:50:46.517Z,22.43
2019-04-11T20:53:16.570Z,22.00
2019-04-11T20:55:47.672Z,21.83
2019-04-11T20:58:27.118Z,22.13
2019-04-11T21:00:55.424Z,22.00
2019-04-11T21:03:22.113Z,21.43
2019-04-11T21:05:52.066Z,21.70
2019-04-11T21:08:21.917Z,23.60
2019-04-11T21:10:52.012Z,22.17
2019-04-11T21:13:21.946Z,21.40
2019-04-11T21:15:51.932Z,22.37
2019-04-11T21:18:25.637Z,22.17
2019-04-11T21:20:55.870Z,22.13
2019-04-11T21:23:29.484Z,22.30
2019-04-11T21:25:59.104Z,22.00
2019-04-11T21:28:30.309Z,22.57
2019-04-11T21:31:00.987Z,21.87
2019-04-11T21:33:34.266Z,21.03
2019-04-11T21:36:02.942Z,22.10
2019-04-11T21:38:32.895Z,21.87
2019-04-11T21:41:05.870Z,21.57
2019-04-11T21:43:36.278Z,21.30
2019-04-11T21:46:07.602Z,21.50
2019-04-11T21:48:37.578Z,23.00
2019-04-11T21:51:11.067Z,21.13
2019-04-11T21:53:39.138Z,21.47
2019-04-11T21:56:09.133Z,20.50
2019-04-11T21:58:39.248Z,20.37
2019-04-11T22:01:12.540Z,21.60
2019-04-11T22:03:45.413Z,20.53
2019-04-11T22:06:15.422Z,21.97
2019-04-11T22:08:45.798Z,19.83
2019-04-11T22:11:15.744Z,20.43
2019-04-11T22:13:45.889Z,20.63
2019-04-11T22:16:17.087Z,20.03
2019-04-11T22:18:47.099Z,19.90
2019-04-11T22:21:19.204Z,19.17
2019-04-11T22:23:49.310Z,20.60
2019-04-11T22:26:19.115Z,19.47
2019-04-11T22:28:48.952Z,19.87
2019-04-11T22:31:18.922Z,21.07
2019-04-11T22:34:00.194Z,19.00
2019-04-11T22:36:30.771Z,19.43
2019-04-11T22:39:01.582Z,20.57
2019-04-11T22:41:33.312Z,20.70
2019-04-11T22:44:03.152Z,20.00
2019-04-11T22:46:33.211Z,19.03
2019-04-11T22:49:03.207Z,20.07
2019-04-11T22:51:33.148Z,20.10
2019-04-11T22:54:03.149Z,19.43
2019-04-11T22:56:33.058Z,20.27
2019-04-11T22:59:03.001Z,20.60
2019-04-11T23:01:35.892Z,19.07
2019-04-11T23:04:06.153Z,19.93
2019-04-11T23:06:36.076Z,20.37
2019-04-11T23:09:07.764Z,19.57
2019-04-11T23:11:38.640Z,19.97
2019-04-11T23:14:08.592Z,20.50
2019-04-11T23:16:38.622Z,20.73
2019-04-11T23:19:08.536Z,21.57
2019-04-11T23:21:38.541Z,22.20
2019-04-11T23:24:12.031Z,20.70
2019-04-11T23:26:40.254Z,21.40
2019-04-11T23:29:10.101Z,20.53
2019-04-11T23:31:39.947Z,22.13
2019-04-11T23:34:09.858Z,21.53
2019-04-11T23:36:39.734Z,20.93
2019-04-11T23:39:09.615Z,21.97
2019-04-11T23:41:39.617Z,21.60
2019-04-11T23:44:09.581Z,21.93
2019-04-11T23:46:39.487Z,21.83
2019-04-11T23:49:09.407Z,22.37
2019-04-11T23:51:39.402Z,23.30
2019-04-11T23:54:09.370Z,25.07
2019-04-11T23:56:39.212Z,22.97
2019-04-11T23:59:09.350Z,24.90
